createdAt,value
2023-04-10T00:01:22.545Z,9.35
2023-04-10T00:06:28.276Z,8.77
2023-04-10T00:11:36.308Z,7.90
2023-04-10T00:16:41.767Z,7.82
2023-04-10T00:21:47.445Z,8.73
2023-04-10T00:26:57.036Z,7.67
2023-04-10T00:32:02.515Z,7.70
2023-04-10T00:37:08.398Z,8.57
2023-04-10T00:42:16.389Z,9.10
2023-04-10T00:47:21.966Z,8.38
2023-04-10T00:52:28.584Z,9.13
2023-04-10T00:57:37.129Z,8.60
2023-04-10T01:02:42.735Z,9.15
2023-04-10T01:08:01.807Z,8.53
2023-04-10T01:13:18.134Z,7.67
2023-04-10T01:18:29.817Z,9.95
2023-04-10T01:23:57.139Z,10.07
2023-04-10T01:29:09.359Z,10.02
2023-04-10T01:34:20.220Z,10.10
2023-04-10T01:39:28.857Z,9.23
2023-04-10T01:44:44.032Z,9.45
2023-04-10T01:49:50.770Z,9.27
2023-04-10T01:54:57.013Z,11.40
2023-04-10T02:00:16.028Z,10.57
2023-04-10T02:05:22.438Z,12.00
2023-04-10T02:10:33.066Z,11.30
2023-04-10T02:15:46.713Z,10.48
2023-04-10T02:20:52.900Z,13.77
2023-04-10T02:25:58.866Z,11.73
2023-04-10T02:31:07.052Z,10.20
2023-04-10T02:36:13.001Z,11.10
2023-04-10T02:41:18.391Z,10.57
2023-04-10T02:46:26.621Z,11.60
2023-04-10T02:51:32.351Z,11.40
2023-04-10T02:56:38.058Z,12.93
2023-04-10T03:01:46.248Z,11.73
2023-04-10T03:06:51.722Z,11.93
2023-04-10T03:11:58.003Z,10.52
2023-04-10T03:17:06.060Z,11.13
2023-04-10T03:22:13.458Z,9.63
2023-04-10T03:27:20.172Z,12.00
2023-04-10T03:32:28.385Z,11.77
2023-04-10T03:37:33.972Z,12.85
2023-04-10T03:42:39.405Z,10.00
2023-04-10T03:47:47.454Z,10.25
2023-04-10T03:52:55.099Z,10.15
2023-04-10T03:58:02.270Z,11.37
2023-04-10T04:03:11.818Z,10.07
2023-04-10T04:08:29.299Z,10.07
2023-04-10T04:13:57.788Z,11.60
2023-04-10T04:19:24.295Z,9.93
2023-04-10T04:24:48.062Z,8.93
2023-04-10T04:29:57.666Z,8.43
2023-04-10T04:35:25.655Z,10.73
2023-04-10T04:40:47.331Z,11.17
2023-04-10T04:46:15.707Z,11.88
2023-04-10T04:51:53.091Z,8.30
2023-04-10T04:57:17.208Z,9.68
2023-04-10T05:02:51.929Z,8.98
2023-04-10T05:08:23.289Z,9.47
2023-04-10T05:13:49.028Z,8.82
2023-04-10T05:19:11.798Z,8.33
2023-04-10T05:24:40.027Z,9.32
2023-04-10T05:29:54.022Z,8.25
2023-04-10T05:35:25.583Z,8.30
2023-04-10T05:40:38.861Z,8.77
2023-04-10T05:46:15.417Z,11.63
2023-04-10T05:51:41.148Z,8.05
2023-04-10T05:57:00.295Z,9.48
2023-04-10T06:02:12.334Z,7.43
2023-04-10T06:07:18.527Z,7.55
2023-04-10T06:12:26.618Z,8.17
2023-04-10T06:17:32.457Z,7.75
2023-04-10T06:22:37.998Z,10.52
2023-04-10T06:27:47.174Z,8.30
2023-04-10T06:32:52.610Z,7.65
2023-04-10T06:37:59.528Z,10.43
2023-04-10T06:43:07.819Z,8.95
2023-04-10T06:48:16.938Z,8.38
2023-04-10T06:53:22.378Z,9.10
2023-04-10T06:58:30.370Z,8.63
2023-04-10T07:03:35.899Z,7.63
2023-04-10T07:08:41.333Z,8.63
2023-04-10T07:13:53.911Z,9.25
2023-04-10T07:18:59.553Z,8.30
2023-04-10T07:24:05.294Z,7.90
2023-04-10T07:29:13.366Z,11.93
2023-04-10T07:34:19.108Z,7.43
2023-04-10T07:39:24.573Z,7.88
2023-04-10T07:44:32.544Z,7.23
2023-04-10T07:49:38.270Z,7.72
2023-04-10T07:54:43.921Z,6.72
2023-04-10T07:59:51.912Z,7.83
2023-04-10T08:04:57.445Z,6.60
2023-04-10T08:10:02.972Z,7.85
2023-04-10T08:15:11.931Z,6.50
2023-04-10T08:20:17.374Z,8.90
2023-04-10T08:25:22.791Z,7.00
2023-04-10T08:30:30.861Z,6.43
2023-04-10T08:35:36.281Z,6.93
2023-04-10T08:40:41.732Z,5.90
2023-04-10T08:45:52.316Z,6.38
2023-04-10T08:50:59.906Z,6.75
2023-04-10T08:56:08.205Z,7.30
2023-04-10T09:01:17.579Z,6.07
2023-04-10T09:06:22.992Z,5.40
2023-04-10T09:11:48.927Z,5.63
2023-04-10T09:17:12.777Z,6.15
2023-04-10T09:22:19.113Z,5.47
2023-04-10T09:27:35.629Z,5.63
2023-04-10T09:32:45.297Z,4.95
2023-04-10T09:37:50.649Z,6.45
2023-04-10T09:42:56.947Z,4.00
2023-04-10T09:48:09.668Z,4.78
2023-04-10T09:53:16.770Z,6.07
2023-04-10T09:58:22.219Z,4.93
2023-04-10T10:03:31.077Z,6.57
2023-04-10T10:08:38.767Z,4.38
2023-04-10T10:13:47.780Z,3.43
2023-04-10T10:19:01.777Z,4.03
2023-04-10T10:24:10.959Z,4.70
2023-04-10T10:29:18.965Z,5.57
2023-04-10T10:34:26.958Z,3.67
2023-04-10T10:39:41.014Z,4.90
2023-04-10T10:44:52.206Z,5.43
2023-04-10T10:50:03.017Z,3.03
2023-04-10T10:55:37.859Z,3.47
2023-04-10T11:01:10.099Z,3.92
2023-04-10T11:06:19.924Z,3.23
2023-04-10T11:11:29.136Z,4.25
2023-04-10T11:16:48.973Z,4.72
2023-04-10T11:22:15.701Z,4.23
2023-04-10T11:27:42.765Z,4.07
2023-04-10T11:32:51.016Z,4.68
2023-04-10T11:38:11.438Z,3.33
2023-04-10T11:43:17.205Z,3.42
2023-04-10T11:48:22.593Z,4.63
2023-04-10T11:53:31.451Z,4.23
2023-04-10T11:58:37.215Z,3.60
2023-04-10T12:03:44.920Z,3.35
2023-04-10T12:08:54.404Z,3.87
2023-04-10T12:14:00.867Z,4.07
2023-04-10T12:19:06.563Z,3.38
2023-04-10T12:24:15.161Z,4.20
2023-04-10T12:29:20.531Z,3.80
2023-04-10T12:34:26.089Z,2.92
2023-04-10T12:39:34.140Z,4.93
2023-04-10T12:44:53.196Z,5.67
2023-04-10T12:50:10.324Z,4.90
2023-04-10T12:55:20.052Z,2.70
2023-04-10T13:00:25.582Z,3.77
2023-04-10T13:05:31.276Z,3.45
2023-04-10T13:10:40.749Z,3.25
2023-04-10T13:15:46.546Z,3.90
2023-04-10T13:20:52.112Z,3.13
2023-04-10T13:26:00.113Z,2.75
2023-04-10T13:31:05.910Z,3.50
2023-04-10T13:36:11.828Z,3.58
2023-04-10T13:41:20.702Z,3.55
2023-04-10T13:46:26.169Z,2.43
2023-04-10T13:51:31.806Z,4.87
2023-04-10T13:56:39.901Z,5.30
2023-04-10T14:01:45.289Z,2.65
2023-04-10T14:06:52.073Z,3.97
2023-04-10T14:12:01.916Z,3.80
2023-04-10T14:17:07.323Z,3.03
2023-04-10T14:22:12.664Z,2.20
2023-04-10T14:27:20.724Z,4.05
2023-04-10T14:32:26.347Z,2.53
2023-04-10T14:37:32.533Z,2.10
2023-04-10T14:42:40.593Z,4.77
2023-04-10T14:47:45.990Z,2.15
2023-04-10T14:52:51.565Z,2.28
2023-04-10T14:57:59.592Z,2.30
2023-04-10T15:03:06.411Z,2.60
2023-04-10T15:08:16.660Z,5.00
2023-04-10T15:13:28.233Z,3.00
2023-04-10T15:18:34.214Z,2.85
2023-04-10T15:23:39.940Z,2.60
2023-04-10T15:28:48.208Z,2.33
2023-04-10T15:33:55.085Z,3.72
2023-04-10T15:39:06.725Z,2.58
2023-04-10T15:44:17.849Z,2.63
2023-04-10T15:49:33.907Z,2.47
2023-04-10T15:54:42.788Z,2.90
2023-04-10T15:59:56.572Z,3.05
2023-04-10T16:05:02.153Z,2.73
2023-04-10T16:10:09.523Z,3.08
2023-04-10T16:15:18.758Z,5.53
2023-04-10T16:20:24.969Z,3.53
2023-04-10T16:25:31.464Z,4.35
2023-04-10T16:30:54.110Z,2.78
2023-04-10T16:36:13.057Z,7.40
2023-04-10T16:41:23.846Z,8.45
2023-04-10T16:46:38.173Z,3.40
2023-04-10T16:51:54.390Z,4.10
2023-04-10T16:57:04.374Z,4.70
2023-04-10T17:02:12.754Z,3.53
2023-04-10T17:07:19.055Z,4.93
2023-04-10T17:12:24.535Z,4.25
2023-04-10T17:17:34.378Z,6.15
2023-04-10T17:22:40.918Z,4.70
2023-04-10T17:27:49.187Z,4.93
2023-04-10T17:32:57.223Z,4.57
2023-04-10T17:38:02.661Z,4.20
2023-04-10T17:43:08.133Z,4.70
2023-04-10T17:48:16.753Z,3.70
2023-04-10T17:53:22.498Z,3.73
2023-04-10T17:58:28.185Z,5.47
2023-04-10T18:03:36.595Z,3.90
2023-04-10T18:08:42.235Z,2.63
2023-04-10T18:13:48.711Z,4.05
2023-04-10T18:18:56.876Z,4.57
2023-04-10T18:24:02.689Z,4.73
2023-04-10T18:29:08.033Z,5.68
2023-04-10T18:34:16.100Z,4.00
2023-04-10T18:39:21.649Z,6.37
2023-04-10T18:44:29.716Z,5.07
2023-04-10T18:49:38.334Z,10.27
2023-04-10T18:54:43.785Z,7.40
2023-04-10T18:59:49.178Z,6.10
2023-04-10T19:04:57.184Z,5.55
2023-04-10T19:10:02.763Z,4.90
2023-04-10T19:15:09.097Z,5.00
2023-04-10T19:20:17.090Z,6.60
2023-04-10T19:25:43.836Z,5.60
2023-04-10T19:30:49.253Z,4.00
2023-04-10T19:35:58.277Z,4.67
2023-04-10T19:41:04.247Z,3.23
2023-04-10T19:46:18.603Z,2.47
2023-04-10T19:51:27.319Z,2.20
2023-04-10T19:56:33.012Z,1.60
2023-04-10T20:01:38.569Z,2.42
2023-04-10T20:06:46.903Z,1.73
2023-04-10T20:11:52.473Z,2.27
2023-04-10T20:16:57.956Z,3.17
2023-04-10T20:22:06.596Z,3.33
2023-04-10T20:27:11.989Z,3.13
2023-04-10T20:32:17.487Z,2.33
2023-04-10T20:37:25.407Z,2.77
2023-04-10T20:42:30.839Z,2.47
2023-04-10T20:47:36.226Z,3.50
2023-04-10T20:52:45.227Z,2.30
2023-04-10T20:57:50.842Z,5.07
2023-04-10T21:02:56.439Z,1.20
2023-04-10T21:08:04.658Z,2.07
2023-04-10T21:13:10.186Z,2.90
2023-04-10T21:18:15.582Z,3.03
2023-04-10T21:23:23.545Z,1.03
2023-04-10T21:28:28.967Z,1.53
2023-04-10T21:33:34.445Z,1.40
2023-04-10T21:38:42.502Z,2.73
2023-04-10T21:43:47.834Z,2.80
2023-04-10T21:48:53.626Z,5.93
2023-04-10T21:54:01.788Z,3.33
2023-04-10T21:59:07.560Z,1.77
2023-04-10T22:04:13.306Z,2.38
2023-04-10T22:09:21.316Z,2.60
2023-04-10T22:14:28.096Z,4.25
2023-04-10T22:19:33.543Z,1.73
2023-04-10T22:24:41.511Z,0.90
2023-04-10T22:29:56.257Z,2.95
2023-04-10T22:35:09.348Z,1.63
2023-04-10T22:40:17.372Z,3.10
2023-04-10T22:45:22.796Z,1.63
2023-04-10T22:50:28.296Z,2.27
2023-04-10T22:55:36.240Z,2.70
2023-04-10T23:00:41.835Z,1.57
2023-04-10T23:05:47.292Z,3.87
2023-04-10T23:10:56.069Z,2.00
2023-04-10T23:16:01.825Z,2.03
2023-04-10T23:21:08.179Z,4.33
2023-04-10T23:26:16.108Z,2.38
2023-04-10T23:31:21.452Z,1.70
2023-04-10T23:36:27.355Z,2.65
2023-04-10T23:41:36.172Z,4.75
2023-04-10T23:46:41.624Z,1.60
2023-04-10T23:51:47.810Z,1.83
2023-04-10T23:56:55.883Z,1.83
